sensor_id;sensor_type;location;lat;lon;timestamp;P1;durP1;ratioP1;P2;durP2;ratioP2
48034;SDS011;33812;46.480;6.834;2022-11-02T00:01:58;2.75;;;1.42;;
48034;SDS011;33812;46.480;6.834;2022-11-02T00:06:00;4.22;;;1.92;;
48034;SDS011;33812;46.480;6.834;2022-11-02T00:10:04;3.22;;;1.35;;
48034;SDS011;33812;46.480;6.834;2022-11-02T00:14:07;4.78;;;2.03;;
48034;SDS011;33812;46.480;6.834;2022-11-02T00:18:09;3.60;;;1.80;;
48034;SDS011;33812;46.480;6.834;2022-11-02T00:22:13;2.72;;;1.50;;
48034;SDS011;33812;46.480;6.834;2022-11-02T00:26:18;8.30;;;1.88;;
48034;SDS011;33812;46.480;6.834;2022-11-02T00:30:21;3.30;;;1.33;;
48034;SDS011;33812;46.480;6.834;2022-11-02T00:34:22;4.25;;;1.33;;
48034;SDS011;33812;46.480;6.834;2022-11-02T00:38:24;3.30;;;1.45;;
48034;SDS011;33812;46.480;6.834;2022-11-02T00:42:27;2.95;;;1.48;;
48034;SDS011;33812;46.480;6.834;2022-11-02T00:46:32;3.53;;;1.65;;
48034;SDS011;33812;46.480;6.834;2022-11-02T00:54:35;2.95;;;1.58;;
48034;SDS011;33812;46.480;6.834;2022-11-02T00:58:38;3.95;;;1.42;;
48034;SDS011;33812;46.480;6.834;2022-11-02T01:02:41;1.90;;;1.23;;
48034;SDS011;33812;46.480;6.834;2022-11-02T01:06:43;2.03;;;1.27;;
48034;SDS011;33812;46.480;6.834;2022-11-02T01:10:46;4.65;;;1.38;;
48034;SDS011;33812;46.480;6.834;2022-11-02T01:14:49;2.10;;;1.27;;
48034;SDS011;33812;46.480;6.834;2022-11-02T01:18:51;3.38;;;1.50;;
48034;SDS011;33812;46.480;6.834;2022-11-02T01:22:53;3.70;;;1.23;;
48034;SDS011;33812;46.480;6.834;2022-11-02T01:26:55;3.25;;;1.48;;
48034;SDS011;33812;46.480;6.834;2022-11-02T01:30:59;3.83;;;1.27;;
48034;SDS011;33812;46.480;6.834;2022-11-02T01:35:02;2.92;;;1.13;;
48034;SDS011;33812;46.480;6.834;2022-11-02T01:39:05;4.68;;;1.40;;
48034;SDS011;33812;46.480;6.834;2022-11-02T01:43:17;2.28;;;1.25;;
48034;SDS011;33812;46.480;6.834;2022-11-02T01:47:24;2.72;;;1.63;;
48034;SDS011;33812;46.480;6.834;2022-11-02T01:51:30;3.67;;;1.33;;
48034;SDS011;33812;46.480;6.834;2022-11-02T01:55:33;2.65;;;1.17;;
48034;SDS011;33812;46.480;6.834;2022-11-02T01:59:37;3.78;;;1.20;;
48034;SDS011;33812;46.480;6.834;2022-11-02T02:03:44;3.85;;;1.00;;
48034;SDS011;33812;46.480;6.834;2022-11-02T02:07:47;3.03;;;1.05;;
48034;SDS011;33812;46.480;6.834;2022-11-02T02:11:53;2.40;;;1.40;;
48034;SDS011;33812;46.480;6.834;2022-11-02T02:15:56;1.92;;;1.40;;
48034;SDS011;33812;46.480;6.834;2022-11-02T02:20:08;2.92;;;1.63;;
48034;SDS011;33812;46.480;6.834;2022-11-02T02:24:23;1.73;;;1.10;;
48034;SDS011;33812;46.480;6.834;2022-11-02T02:28:42;5.13;;;1.45;;
48034;SDS011;33812;46.480;6.834;2022-11-02T02:32:50;2.63;;;1.17;;
48034;SDS011;33812;46.480;6.834;2022-11-02T02:36:57;2.72;;;1.30;;
48034;SDS011;33812;46.480;6.834;2022-11-02T02:41:08;1.70;;;1.10;;
48034;SDS011;33812;46.480;6.834;2022-11-02T02:45:16;1.52;;;0.90;;
48034;SDS011;33812;46.480;6.834;2022-11-02T02:49:24;1.73;;;1.17;;
48034;SDS011;33812;46.480;6.834;2022-11-02T02:53:32;2.05;;;1.23;;
48034;SDS011;33812;46.480;6.834;2022-11-02T02:57:37;2.97;;;1.15;;
48034;SDS011;33812;46.480;6.834;2022-11-02T03:01:43;1.83;;;1.00;;
48034;SDS011;33812;46.480;6.834;2022-11-02T03:05:54;3.25;;;1.75;;
48034;SDS011;33812;46.480;6.834;2022-11-02T03:10:05;2.58;;;1.13;;
48034;SDS011;33812;46.480;6.834;2022-11-02T03:14:15;2.70;;;1.02;;
48034;SDS011;33812;46.480;6.834;2022-11-02T03:18:31;2.08;;;1.20;;
48034;SDS011;33812;46.480;6.834;2022-11-02T03:22:43;3.63;;;1.20;;
48034;SDS011;33812;46.480;6.834;2022-11-02T03:26:54;2.38;;;1.00;;
48034;SDS011;33812;46.480;6.834;2022-11-02T03:31:06;2.20;;;1.37;;
48034;SDS011;33812;46.480;6.834;2022-11-02T03:35:16;2.28;;;1.13;;
48034;SDS011;33812;46.480;6.834;2022-11-02T03:39:23;2.17;;;1.00;;
48034;SDS011;33812;46.480;6.834;2022-11-02T03:43:31;2.75;;;1.30;;
48034;SDS011;33812;46.480;6.834;2022-11-02T03:47:35;2.53;;;1.00;;
48034;SDS011;33812;46.480;6.834;2022-11-02T03:51:41;0.93;;;0.80;;
48034;SDS011;33812;46.480;6.834;2022-11-02T03:55:46;1.50;;;1.10;;
48034;SDS011;33812;46.480;6.834;2022-11-02T03:59:52;2.50;;;0.85;;
48034;SDS011;33812;46.480;6.834;2022-11-02T04:03:54;2.67;;;1.02;;
48034;SDS011;33812;46.480;6.834;2022-11-02T04:07:57;2.38;;;1.30;;
48034;SDS011;33812;46.480;6.834;2022-11-02T04:12:17;2.50;;;1.30;;
48034;SDS011;33812;46.480;6.834;2022-11-02T04:16:36;1.73;;;1.15;;
48034;SDS011;33812;46.480;6.834;2022-11-02T04:20:38;2.63;;;1.08;;
48034;SDS011;33812;46.480;6.834;2022-11-02T04:24:40;2.22;;;0.93;;
48034;SDS011;33812;46.480;6.834;2022-11-02T04:29:00;2.40;;;1.20;;
48034;SDS011;33812;46.480;6.834;2022-11-02T04:33:02;4.20;;;1.13;;
48034;SDS011;33812;46.480;6.834;2022-11-02T04:37:22;2.20;;;0.90;;
48034;SDS011;33812;46.480;6.834;2022-11-02T04:41:40;2.30;;;1.30;;
48034;SDS011;33812;46.480;6.834;2022-11-02T04:45:42;3.80;;;1.33;;
48034;SDS011;33812;46.480;6.834;2022-11-02T04:49:44;9.98;;;1.05;;
48034;SDS011;33812;46.480;6.834;2022-11-02T04:57:54;9.77;;;1.80;;
48034;SDS011;33812;46.480;6.834;2022-11-02T05:01:55;5.07;;;1.20;;
48034;SDS011;33812;46.480;6.834;2022-11-02T05:05:57;3.10;;;1.00;;
48034;SDS011;33812;46.480;6.834;2022-11-02T05:09:59;1.70;;;0.80;;
48034;SDS011;33812;46.480;6.834;2022-11-02T05:14:03;2.25;;;1.02;;
48034;SDS011;33812;46.480;6.834;2022-11-02T05:18:05;1.23;;;1.03;;
48034;SDS011;33812;46.480;6.834;2022-11-02T05:22:06;1.73;;;0.98;;
48034;SDS011;33812;46.480;6.834;2022-11-02T05:26:09;3.58;;;0.80;;
48034;SDS011;33812;46.480;6.834;2022-11-02T05:30:13;4.75;;;1.38;;
48034;SDS011;33812;46.480;6.834;2022-11-02T05:34:16;3.15;;;1.33;;
48034;SDS011;33812;46.480;6.834;2022-11-02T05:38:18;9.38;;;1.10;;
48034;SDS011;33812;46.480;6.834;2022-11-02T05:42:19;7.28;;;1.10;;
48034;SDS011;33812;46.480;6.834;2022-11-02T05:46:22;11.18;;;1.55;;
48034;SDS011;33812;46.480;6.834;2022-11-02T05:50:24;7.82;;;1.40;;
48034;SDS011;33812;46.480;6.834;2022-11-02T05:54:26;9.38;;;1.98;;
48034;SDS011;33812;46.480;6.834;2022-11-02T06:02:40;10.82;;;1.25;;
48034;SDS011;33812;46.480;6.834;2022-11-02T06:06:42;4.25;;;1.30;;
48034;SDS011;33812;46.480;6.834;2022-11-02T06:10:44;4.22;;;1.85;;
48034;SDS011;33812;46.480;6.834;2022-11-02T06:14:47;3.53;;;1.92;;
48034;SDS011;33812;46.480;6.834;2022-11-02T06:18:51;9.10;;;1.77;;
48034;SDS011;33812;46.480;6.834;2022-11-02T06:22:52;10.10;;;1.75;;
48034;SDS011;33812;46.480;6.834;2022-11-02T06:26:54;9.82;;;1.67;;
48034;SDS011;33812;46.480;6.834;2022-11-02T06:30:56;9.40;;;1.70;;
48034;SDS011;33812;46.480;6.834;2022-11-02T06:34:59;6.95;;;1.30;;
48034;SDS011;33812;46.480;6.834;2022-11-02T06:39:01;4.97;;;1.10;;
48034;SDS011;33812;46.480;6.834;2022-11-02T06:43:03;9.23;;;1.20;;
48034;SDS011;33812;46.480;6.834;2022-11-02T06:47:06;4.18;;;1.17;;
48034;SDS011;33812;46.480;6.834;2022-11-02T06:51:10;3.90;;;1.33;;
48034;SDS011;33812;46.480;6.834;2022-11-02T06:55:12;6.10;;;2.08;;
48034;SDS011;33812;46.480;6.834;2022-11-02T06:59:15;2.50;;;1.45;;
48034;SDS011;33812;46.480;6.834;2022-11-02T07:03:16;6.38;;;1.50;;
48034;SDS011;33812;46.480;6.834;2022-11-02T07:07:19;8.45;;;2.22;;
48034;SDS011;33812;46.480;6.834;2022-11-02T07:11:21;4.25;;;1.40;;
48034;SDS011;33812;46.480;6.834;2022-11-02T07:15:24;3.13;;;1.38;;
48034;SDS011;33812;46.480;6.834;2022-11-02T07:19:27;9.02;;;1.48;;
48034;SDS011;33812;46.480;6.834;2022-11-02T07:23:30;2.28;;;1.30;;
48034;SDS011;33812;46.480;6.834;2022-11-02T07:27:36;3.47;;;1.20;;
48034;SDS011;33812;46.480;6.834;2022-11-02T07:31:38;2.83;;;1.17;;
48034;SDS011;33812;46.480;6.834;2022-11-02T07:35:40;2.30;;;1.27;;
48034;SDS011;33812;46.480;6.834;2022-11-02T07:39:44;3.72;;;1.70;;
48034;SDS011;33812;46.480;6.834;2022-11-02T07:43:45;3.15;;;1.20;;
48034;SDS011;33812;46.480;6.834;2022-11-02T07:47:48;7.38;;;1.60;;
48034;SDS011;33812;46.480;6.834;2022-11-02T07:51:50;9.00;;;1.52;;
48034;SDS011;33812;46.480;6.834;2022-11-02T07:55:53;4.95;;;1.35;;
48034;SDS011;33812;46.480;6.834;2022-11-02T07:59:55;10.48;;;1.60;;
48034;SDS011;33812;46.480;6.834;2022-11-02T08:03:57;6.05;;;2.10;;
48034;SDS011;33812;46.480;6.834;2022-11-02T08:07:59;4.18;;;1.42;;
48034;SDS011;33812;46.480;6.834;2022-11-02T08:12:04;7.80;;;1.70;;
48034;SDS011;33812;46.480;6.834;2022-11-02T08:20:09;4.78;;;1.38;;
48034;SDS011;33812;46.480;6.834;2022-11-02T08:24:18;4.03;;;1.15;;
48034;SDS011;33812;46.480;6.834;2022-11-02T08:28:33;4.57;;;1.00;;
48034;SDS011;33812;46.480;6.834;2022-11-02T08:32:54;2.55;;;1.30;;
48034;SDS011;33812;46.480;6.834;2022-11-02T08:36:56;1.90;;;1.20;;
48034;SDS011;33812;46.480;6.834;2022-11-02T08:40:58;6.35;;;1.30;;
48034;SDS011;33812;46.480;6.834;2022-11-02T08:49:09;2.35;;;1.17;;
48034;SDS011;33812;46.480;6.834;2022-11-02T08:53:12;2.00;;;1.20;;
48034;SDS011;33812;46.480;6.834;2022-11-02T08:57:20;7.13;;;2.30;;
48034;SDS011;33812;46.480;6.834;2022-11-02T09:05:33;3.75;;;1.17;;
48034;SDS011;33812;46.480;6.834;2022-11-02T09:09:36;2.28;;;1.30;;
48034;SDS011;33812;46.480;6.834;2022-11-02T09:13:39;2.45;;;1.30;;
48034;SDS011;33812;46.480;6.834;2022-11-02T09:17:46;2.38;;;1.30;;
48034;SDS011;33812;46.480;6.834;2022-11-02T09:21:51;3.38;;;1.33;;
48034;SDS011;33812;46.480;6.834;2022-11-02T09:26:08;3.00;;;1.50;;
48034;SDS011;33812;46.480;6.834;2022-11-02T09:30:11;6.38;;;1.00;;
48034;SDS011;33812;46.480;6.834;2022-11-02T09:34:16;1.95;;;1.40;;
48034;SDS011;33812;46.480;6.834;2022-11-02T09:38:19;2.92;;;1.30;;
48034;SDS011;33812;46.480;6.834;2022-11-02T09:42:22;2.60;;;1.40;;
48034;SDS011;33812;46.480;6.834;2022-11-02T09:46:35;3.08;;;1.10;;
48034;SDS011;33812;46.480;6.834;2022-11-02T09:50:45;5.15;;;1.20;;
48034;SDS011;33812;46.480;6.834;2022-11-02T09:54:51;3.88;;;1.63;;
48034;SDS011;33812;46.480;6.834;2022-11-02T09:58:57;2.20;;;1.30;;
48034;SDS011;33812;46.480;6.834;2022-11-02T10:03:04;3.38;;;1.40;;
48034;SDS011;33812;46.480;6.834;2022-11-02T10:07:23;3.00;;;1.50;;
48034;SDS011;33812;46.480;6.834;2022-11-02T10:11:37;4.18;;;1.63;;
48034;SDS011;33812;46.480;6.834;2022-11-02T10:15:48;3.00;;;1.40;;
48034;SDS011;33812;46.480;6.834;2022-11-02T10:19:54;2.95;;;1.40;;
48034;SDS011;33812;46.480;6.834;2022-11-02T10:24:02;2.20;;;1.57;;
48034;SDS011;33812;46.480;6.834;2022-11-02T10:28:13;2.55;;;1.30;;
48034;SDS011;33812;46.480;6.834;2022-11-02T10:32:18;3.28;;;1.40;;
48034;SDS011;33812;46.480;6.834;2022-11-02T10:36:23;2.90;;;1.55;;
48034;SDS011;33812;46.480;6.834;2022-11-02T10:49:15;2.15;;;1.33;;
48034;SDS011;33812;46.480;6.834;2022-11-02T10:53:32;3.58;;;1.55;;
48034;SDS011;33812;46.480;6.834;2022-11-02T10:57:37;4.57;;;1.80;;
48034;SDS011;33812;46.480;6.834;2022-11-02T11:01:44;4.22;;;1.67;;
48034;SDS011;33812;46.480;6.834;2022-11-02T11:05:54;2.63;;;1.48;;
48034;SDS011;33812;46.480;6.834;2022-11-02T11:09:59;2.22;;;1.20;;
48034;SDS011;33812;46.480;6.834;2022-11-02T11:14:03;2.47;;;1.30;;
48034;SDS011;33812;46.480;6.834;2022-11-02T11:18:16;1.95;;;1.23;;
48034;SDS011;33812;46.480;6.834;2022-11-02T11:22:27;2.35;;;1.25;;
48034;SDS011;33812;46.480;6.834;2022-11-02T11:26:30;4.28;;;2.13;;
48034;SDS011;33812;46.480;6.834;2022-11-02T11:30:33;2.83;;;1.30;;
48034;SDS011;33812;46.480;6.834;2022-11-02T11:34:37;2.08;;;1.02;;
48034;SDS011;33812;46.480;6.834;2022-11-02T11:38:43;2.90;;;1.20;;
48034;SDS011;33812;46.480;6.834;2022-11-02T11:42:48;4.13;;;1.38;;
48034;SDS011;33812;46.480;6.834;2022-11-02T11:46:55;3.38;;;1.23;;
48034;SDS011;33812;46.480;6.834;2022-11-02T11:50:58;3.53;;;1.30;;
48034;SDS011;33812;46.480;6.834;2022-11-02T11:55:18;3.08;;;1.30;;
48034;SDS011;33812;46.480;6.834;2022-11-02T11:59:26;2.05;;;1.10;;
48034;SDS011;33812;46.480;6.834;2022-11-02T12:03:32;1.95;;;1.10;;
48034;SDS011;33812;46.480;6.834;2022-11-02T12:07:37;2.65;;;1.20;;
48034;SDS011;33812;46.480;6.834;2022-11-02T12:11:59;4.75;;;1.75;;
48034;SDS011;33812;46.480;6.834;2022-11-02T12:16:12;1.23;;;1.00;;
48034;SDS011;33812;46.480;6.834;2022-11-02T12:20:32;2.55;;;1.25;;
48034;SDS011;33812;46.480;6.834;2022-11-02T12:24:48;2.22;;;1.25;;
48034;SDS011;33812;46.480;6.834;2022-11-02T12:29:16;2.45;;;1.27;;
48034;SDS011;33812;46.480;6.834;2022-11-02T12:33:32;3.58;;;1.40;;
48034;SDS011;33812;46.480;6.834;2022-11-02T12:37:48;2.80;;;1.33;;
48034;SDS011;33812;46.480;6.834;2022-11-02T12:42:06;1.95;;;1.17;;
48034;SDS011;33812;46.480;6.834;2022-11-02T12:46:25;1.58;;;0.90;;
48034;SDS011;33812;46.480;6.834;2022-11-02T12:50:36;3.70;;;1.25;;
48034;SDS011;33812;46.480;6.834;2022-11-02T12:54:53;5.97;;;1.52;;
48034;SDS011;33812;46.480;6.834;2022-11-02T12:58:58;2.75;;;0.95;;
48034;SDS011;33812;46.480;6.834;2022-11-02T13:03:01;2.17;;;1.10;;
48034;SDS011;33812;46.480;6.834;2022-11-02T13:07:09;1.77;;;1.00;;
48034;SDS011;33812;46.480;6.834;2022-11-02T13:11:17;2.47;;;1.00;;
48034;SDS011;33812;46.480;6.834;2022-11-02T13:15:24;2.03;;;0.95;;
48034;SDS011;33812;46.480;6.834;2022-11-02T13:19:31;1.38;;;1.00;;
48034;SDS011;33812;46.480;6.834;2022-11-02T13:23:36;1.02;;;0.70;;
48034;SDS011;33812;46.480;6.834;2022-11-02T13:27:46;1.50;;;0.93;;
48034;SDS011;33812;46.480;6.834;2022-11-02T13:31:53;2.67;;;0.90;;
48034;SDS011;33812;46.480;6.834;2022-11-02T13:35:58;2.05;;;0.90;;
48034;SDS011;33812;46.480;6.834;2022-11-02T13:40:02;1.42;;;0.93;;
48034;SDS011;33812;46.480;6.834;2022-11-02T13:48:38;2.15;;;0.85;;
48034;SDS011;33812;46.480;6.834;2022-11-02T13:52:48;3.63;;;1.40;;
48034;SDS011;33812;46.480;6.834;2022-11-02T13:56:54;1.77;;;0.90;;
48034;SDS011;33812;46.480;6.834;2022-11-02T14:01:01;1.85;;;1.00;;
48034;SDS011;33812;46.480;6.834;2022-11-02T14:05:05;2.10;;;1.02;;
48034;SDS011;33812;46.480;6.834;2022-11-02T14:09:08;2.95;;;1.10;;
48034;SDS011;33812;46.480;6.834;2022-11-02T14:13:25;1.95;;;0.90;;
48034;SDS011;33812;46.480;6.834;2022-11-02T14:18:12;5.60;;;1.02;;
48034;SDS011;33812;46.480;6.834;2022-11-02T14:22:31;3.58;;;1.30;;
48034;SDS011;33812;46.480;6.834;2022-11-02T14:26:32;2.42;;;1.10;;
48034;SDS011;33812;46.480;6.834;2022-11-02T14:30:54;1.50;;;0.88;;
48034;SDS011;33812;46.480;6.834;2022-11-02T14:35:07;4.57;;;1.40;;
48034;SDS011;33812;46.480;6.834;2022-11-02T14:39:20;1.90;;;1.00;;
48034;SDS011;33812;46.480;6.834;2022-11-02T14:43:37;1.70;;;0.85;;
48034;SDS011;33812;46.480;6.834;2022-11-02T14:47:57;3.05;;;1.13;;
48034;SDS011;33812;46.480;6.834;2022-11-02T14:52:04;4.70;;;0.93;;
48034;SDS011;33812;46.480;6.834;2022-11-02T14:56:15;2.03;;;0.80;;
48034;SDS011;33812;46.480;6.834;2022-11-02T15:00:17;1.75;;;0.95;;
48034;SDS011;33812;46.480;6.834;2022-11-02T15:04:21;2.22;;;1.13;;
48034;SDS011;33812;46.480;6.834;2022-11-02T15:08:26;2.63;;;0.90;;
48034;SDS011;33812;46.480;6.834;2022-11-02T15:12:35;2.17;;;1.17;;
48034;SDS011;33812;46.480;6.834;2022-11-02T15:16:39;2.25;;;1.15;;
48034;SDS011;33812;46.480;6.834;2022-11-02T15:20:41;4.07;;;1.15;;
48034;SDS011;33812;46.480;6.834;2022-11-02T15:24:45;1.27;;;0.80;;
48034;SDS011;33812;46.480;6.834;2022-11-02T15:28:49;2.45;;;0.93;;
48034;SDS011;33812;46.480;6.834;2022-11-02T15:32:55;1.85;;;1.08;;
48034;SDS011;33812;46.480;6.834;2022-11-02T15:36:59;2.95;;;1.17;;
48034;SDS011;33812;46.480;6.834;2022-11-02T15:41:12;2.53;;;1.10;;
48034;SDS011;33812;46.480;6.834;2022-11-02T15:45:25;2.70;;;1.00;;
48034;SDS011;33812;46.480;6.834;2022-11-02T15:54:31;1.83;;;1.00;;
48034;SDS011;33812;46.480;6.834;2022-11-02T16:03:26;2.40;;;0.90;;
48034;SDS011;33812;46.480;6.834;2022-11-02T16:07:28;3.13;;;1.00;;
48034;SDS011;33812;46.480;6.834;2022-11-02T16:11:31;11.75;;;1.33;;
48034;SDS011;33812;46.480;6.834;2022-11-02T16:15:34;2.95;;;1.08;;
48034;SDS011;33812;46.480;6.834;2022-11-02T16:19:36;2.28;;;1.20;;
48034;SDS011;33812;46.480;6.834;2022-11-02T16:23:38;6.10;;;1.02;;
48034;SDS011;33812;46.480;6.834;2022-11-02T16:31:47;2.42;;;1.00;;
48034;SDS011;33812;46.480;6.834;2022-11-02T16:35:51;3.08;;;1.10;;
48034;SDS011;33812;46.480;6.834;2022-11-02T16:39:53;12.70;;;1.70;;
48034;SDS011;33812;46.480;6.834;2022-11-02T16:43:57;2.63;;;0.98;;
48034;SDS011;33812;46.480;6.834;2022-11-02T16:48:15;8.02;;;1.33;;
48034;SDS011;33812;46.480;6.834;2022-11-02T16:52:24;4.50;;;1.23;;
48034;SDS011;33812;46.480;6.834;2022-11-02T16:56:30;2.30;;;1.23;;
48034;SDS011;33812;46.480;6.834;2022-11-02T17:00:32;6.57;;;1.17;;
48034;SDS011;33812;46.480;6.834;2022-11-02T17:04:36;6.85;;;1.25;;
48034;SDS011;33812;46.480;6.834;2022-11-02T17:08:41;2.97;;;1.40;;
48034;SDS011;33812;46.480;6.834;2022-11-02T17:12:44;7.18;;;1.80;;
48034;SDS011;33812;46.480;6.834;2022-11-02T17:17:01;2.80;;;1.25;;
48034;SDS011;33812;46.480;6.834;2022-11-02T17:21:26;4.75;;;1.20;;
48034;SDS011;33812;46.480;6.834;2022-11-02T17:25:30;6.97;;;1.70;;
48034;SDS011;33812;46.480;6.834;2022-11-02T17:29:33;7.50;;;1.80;;
48034;SDS011;33812;46.480;6.834;2022-11-02T17:33:40;3.30;;;0.98;;
48034;SDS011;33812;46.480;6.834;2022-11-02T17:37:45;13.57;;;1.30;;
48034;SDS011;33812;46.480;6.834;2022-11-02T17:41:52;12.00;;;1.45;;
48034;SDS011;33812;46.480;6.834;2022-11-02T17:46:12;13.43;;;1.58;;
48034;SDS011;33812;46.480;6.834;2022-11-02T17:50:14;7.47;;;1.70;;
48034;SDS011;33812;46.480;6.834;2022-11-02T17:54:17;3.30;;;1.40;;
48034;SDS011;33812;46.480;6.834;2022-11-02T17:58:19;6.63;;;2.33;;
48034;SDS011;33812;46.480;6.834;2022-11-02T18:02:20;11.70;;;3.75;;
48034;SDS011;33812;46.480;6.834;2022-11-02T18:06:23;8.93;;;2.42;;
48034;SDS011;33812;46.480;6.834;2022-11-02T18:10:29;10.52;;;2.80;;
48034;SDS011;33812;46.480;6.834;2022-11-02T18:14:33;10.80;;;4.32;;
48034;SDS011;33812;46.480;6.834;2022-11-02T18:18:35;10.52;;;2.72;;
48034;SDS011;33812;46.480;6.834;2022-11-02T18:22:37;11.18;;;2.70;;
48034;SDS011;33812;46.480;6.834;2022-11-02T18:26:40;14.65;;;2.53;;
48034;SDS011;33812;46.480;6.834;2022-11-02T18:30:43;3.38;;;2.08;;
48034;SDS011;33812;46.480;6.834;2022-11-02T18:34:51;3.72;;;1.77;;
48034;SDS011;33812;46.480;6.834;2022-11-02T18:38:54;5.45;;;1.60;;
48034;SDS011;33812;46.480;6.834;2022-11-02T18:42:57;4.82;;;1.95;;
48034;SDS011;33812;46.480;6.834;2022-11-02T18:46:58;6.13;;;1.50;;
48034;SDS011;33812;46.480;6.834;2022-11-02T18:51:00;5.82;;;1.52;;
48034;SDS011;33812;46.480;6.834;2022-11-02T18:55:03;2.80;;;1.58;;
48034;SDS011;33812;46.480;6.834;2022-11-02T18:59:07;3.75;;;1.23;;
48034;SDS011;33812;46.480;6.834;2022-11-02T19:03:10;8.20;;;1.00;;
48034;SDS011;33812;46.480;6.834;2022-11-02T19:07:12;8.45;;;1.58;;
48034;SDS011;33812;46.480;6.834;2022-11-02T19:11:31;4.00;;;1.30;;
48034;SDS011;33812;46.480;6.834;2022-11-02T19:15:37;10.68;;;2.50;;
48034;SDS011;33812;46.480;6.834;2022-11-02T19:19:44;11.27;;;2.20;;
48034;SDS011;33812;46.480;6.834;2022-11-02T19:23:47;24.63;;;2.88;;
48034;SDS011;33812;46.480;6.834;2022-11-02T19:27:49;16.88;;;2.17;;
48034;SDS011;33812;46.480;6.834;2022-11-02T19:31:53;29.67;;;3.35;;
48034;SDS011;33812;46.480;6.834;2022-11-02T19:35:55;16.48;;;2.72;;
48034;SDS011;33812;46.480;6.834;2022-11-02T19:39:57;11.50;;;1.90;;
48034;SDS011;33812;46.480;6.834;2022-11-02T19:43:59;21.40;;;2.13;;
48034;SDS011;33812;46.480;6.834;2022-11-02T19:48:02;16.23;;;2.45;;
48034;SDS011;33812;46.480;6.834;2022-11-02T19:52:04;10.93;;;2.10;;
48034;SDS011;33812;46.480;6.834;2022-11-02T19:56:06;16.45;;;2.58;;
48034;SDS011;33812;46.480;6.834;2022-11-02T20:00:12;20.63;;;2.10;;
48034;SDS011;33812;46.480;6.834;2022-11-02T20:04:16;19.52;;;2.75;;
48034;SDS011;33812;46.480;6.834;2022-11-02T20:08:17;23.23;;;2.90;;
48034;SDS011;33812;46.480;6.834;2022-11-02T20:12:19;10.23;;;1.83;;
48034;SDS011;33812;46.480;6.834;2022-11-02T20:16:21;9.35;;;2.03;;
48034;SDS011;33812;46.480;6.834;2022-11-02T20:20:24;9.07;;;1.60;;
48034;SDS011;33812;46.480;6.834;2022-11-02T20:24:26;7.80;;;2.45;;
48034;SDS011;33812;46.480;6.834;2022-11-02T20:28:28;8.52;;;2.22;;
48034;SDS011;33812;46.480;6.834;2022-11-02T20:32:29;7.53;;;1.95;;
48034;SDS011;33812;46.480;6.834;2022-11-02T20:36:32;8.93;;;1.98;;
48034;SDS011;33812;46.480;6.834;2022-11-02T20:40:34;16.63;;;2.20;;
48034;SDS011;33812;46.480;6.834;2022-11-02T20:44:36;7.03;;;1.80;;
48034;SDS011;33812;46.480;6.834;2022-11-02T20:48:39;6.75;;;1.48;;
48034;SDS011;33812;46.480;6.834;2022-11-02T20:52:42;9.45;;;1.88;;
48034;SDS011;33812;46.480;6.834;2022-11-02T20:56:44;7.63;;;1.45;;
48034;SDS011;33812;46.480;6.834;2022-11-02T21:00:46;8.75;;;1.92;;
48034;SDS011;33812;46.480;6.834;2022-11-02T21:04:48;9.85;;;1.38;;
48034;SDS011;33812;46.480;6.834;2022-11-02T21:08:52;9.15;;;1.83;;
48034;SDS011;33812;46.480;6.834;2022-11-02T21:12:54;3.15;;;1.63;;
48034;SDS011;33812;46.480;6.834;2022-11-02T21:17:13;3.58;;;1.60;;
48034;SDS011;33812;46.480;6.834;2022-11-02T21:21:17;7.65;;;1.40;;
48034;SDS011;33812;46.480;6.834;2022-11-02T21:29:22;5.40;;;1.75;;
48034;SDS011;33812;46.480;6.834;2022-11-02T21:33:24;4.40;;;1.63;;
48034;SDS011;33812;46.480;6.834;2022-11-02T21:37:26;6.22;;;1.77;;
48034;SDS011;33812;46.480;6.834;2022-11-02T21:41:29;4.13;;;1.73;;
48034;SDS011;33812;46.480;6.834;2022-11-02T21:45:35;5.05;;;1.77;;
48034;SDS011;33812;46.480;6.834;2022-11-02T21:49:38;3.50;;;1.70;;
48034;SDS011;33812;46.480;6.834;2022-11-02T21:53:40;5.22;;;1.55;;
48034;SDS011;33812;46.480;6.834;2022-11-02T21:57:46;3.65;;;1.48;;
48034;SDS011;33812;46.480;6.834;2022-11-02T22:01:47;6.40;;;1.52;;
48034;SDS011;33812;46.480;6.834;2022-11-02T22:05:51;5.97;;;1.73;;
48034;SDS011;33812;46.480;6.834;2022-11-02T22:09:56;7.82;;;1.30;;
48034;SDS011;33812;46.480;6.834;2022-11-02T22:13:59;4.90;;;1.33;;
48034;SDS011;33812;46.480;6.834;2022-11-02T22:18:01;3.70;;;1.40;;
48034;SDS011;33812;46.480;6.834;2022-11-02T22:22:03;8.27;;;1.33;;
48034;SDS011;33812;46.480;6.834;2022-11-02T22:26:05;4.72;;;1.33;;
48034;SDS011;33812;46.480;6.834;2022-11-02T22:30:11;3.77;;;1.30;;
48034;SDS011;33812;46.480;6.834;2022-11-02T22:34:13;5.85;;;1.13;;
48034;SDS011;33812;46.480;6.834;2022-11-02T22:38:16;3.03;;;1.30;;
48034;SDS011;33812;46.480;6.834;2022-11-02T22:42:35;4.50;;;1.45;;
48034;SDS011;33812;46.480;6.834;2022-11-02T22:46:39;2.22;;;1.33;;
48034;SDS011;33812;46.480;6.834;2022-11-02T22:50:42;7.60;;;1.50;;
48034;SDS011;33812;46.480;6.834;2022-11-02T22:54:44;4.13;;;1.48;;
48034;SDS011;33812;46.480;6.834;2022-11-02T22:58:46;2.08;;;1.05;;
48034;SDS011;33812;46.480;6.834;2022-11-02T23:02:50;7.15;;;1.40;;
48034;SDS011;33812;46.480;6.834;2022-11-02T23:07:04;3.78;;;1.15;;
48034;SDS011;33812;46.480;6.834;2022-11-02T23:11:06;2.53;;;1.02;;
48034;SDS011;33812;46.480;6.834;2022-11-02T23:15:22;2.58;;;1.13;;
48034;SDS011;33812;46.480;6.834;2022-11-02T23:19:25;2.55;;;1.27;;
48034;SDS011;33812;46.480;6.834;2022-11-02T23:23:28;6.18;;;1.58;;
48034;SDS011;33812;46.480;6.834;2022-11-02T23:27:52;3.08;;;1.23;;
48034;SDS011;33812;46.480;6.834;2022-11-02T23:32:15;3.88;;;1.23;;
48034;SDS011;33812;46.480;6.834;2022-11-02T23:36:27;4.63;;;1.30;;
48034;SDS011;33812;46.480;6.834;2022-11-02T23:40:29;5.40;;;1.38;;
48034;SDS011;33812;46.480;6.834;2022-11-02T23:44:33;2.90;;;1.27;;
48034;SDS011;33812;46.480;6.834;2022-11-02T23:48:35;6.40;;;1.63;;
48034;SDS011;33812;46.480;6.834;2022-11-02T23:52:38;1.77;;;1.05;;
48034;SDS011;33812;46.480;6.834;2022-11-02T23:56:57;4.88;;;1.55;;
